sensor_id;sensor_type;location;lat;lon;timestamp;P1;durP1;ratioP1;P2;durP2;ratioP2
9240;SDS011;53485;49.326;9.738;2023-02-22T00:00:22;14.23;;;9.43;;
9240;SDS011;53485;49.326;9.738;2023-02-22T00:02:49;14.57;;;10.23;;
9240;SDS011;53485;49.326;9.738;2023-02-22T00:05:15;11.67;;;8.57;;
9240;SDS011;53485;49.326;9.738;2023-02-22T00:07:42;14.53;;;9.13;;
9240;SDS011;53485;49.326;9.738;2023-02-22T00:10:07;14.60;;;9.50;;
9240;SDS011;53485;49.326;9.738;2023-02-22T00:12:33;15.37;;;9.83;;
9240;SDS011;53485;49.326;9.738;2023-02-22T00:15:00;14.03;;;9.57;;
9240;SDS011;53485;49.326;9.738;2023-02-22T00:17:26;15.33;;;9.47;;
9240;SDS011;53485;49.326;9.738;2023-02-22T00:19:53;14.77;;;8.70;;
9240;SDS011;53485;49.326;9.738;2023-02-22T00:22:20;13.80;;;9.27;;
9240;SDS011;53485;49.326;9.738;2023-02-22T00:24:46;12.57;;;9.13;;
9240;SDS011;53485;49.326;9.738;2023-02-22T00:27:13;14.03;;;9.23;;
9240;SDS011;53485;49.326;9.738;2023-02-22T00:29:43;14.57;;;9.27;;
9240;SDS011;53485;49.326;9.738;2023-02-22T00:32:06;16.80;;;10.40;;
9240;SDS011;53485;49.326;9.738;2023-02-22T00:34:32;13.10;;;8.80;;
9240;SDS011;53485;49.326;9.738;2023-02-22T00:36:59;12.83;;;9.63;;
9240;SDS011;53485;49.326;9.738;2023-02-22T00:39:25;14.03;;;10.90;;
9240;SDS011;53485;49.326;9.738;2023-02-22T00:41:52;15.57;;;11.67;;
9240;SDS011;53485;49.326;9.738;2023-02-22T00:44:19;18.40;;;11.77;;
9240;SDS011;53485;49.326;9.738;2023-02-22T00:46:45;15.13;;;11.63;;
9240;SDS011;53485;49.326;9.738;2023-02-22T00:49:12;17.87;;;11.40;;
9240;SDS011;53485;49.326;9.738;2023-02-22T00:51:39;19.20;;;11.83;;
9240;SDS011;53485;49.326;9.738;2023-02-22T00:54:05;19.47;;;13.27;;
9240;SDS011;53485;49.326;9.738;2023-02-22T00:56:32;17.90;;;12.97;;
9240;SDS011;53485;49.326;9.738;2023-02-22T00:58:58;18.50;;;14.00;;
9240;SDS011;53485;49.326;9.738;2023-02-22T01:01:24;34.97;;;21.93;;
9240;SDS011;53485;49.326;9.738;2023-02-22T01:03:50;26.80;;;18.03;;
9240;SDS011;53485;49.326;9.738;2023-02-22T01:06:17;21.77;;;13.30;;
9240;SDS011;53485;49.326;9.738;2023-02-22T01:08:44;16.03;;;10.50;;
9240;SDS011;53485;49.326;9.738;2023-02-22T01:11:09;19.37;;;10.67;;
9240;SDS011;53485;49.326;9.738;2023-02-22T01:13:36;13.10;;;10.80;;
9240;SDS011;53485;49.326;9.738;2023-02-22T01:16:02;14.57;;;11.17;;
9240;SDS011;53485;49.326;9.738;2023-02-22T01:18:29;16.63;;;11.70;;
9240;SDS011;53485;49.326;9.738;2023-02-22T01:20:56;15.47;;;10.67;;
9240;SDS011;53485;49.326;9.738;2023-02-22T01:23:22;15.73;;;10.33;;
9240;SDS011;53485;49.326;9.738;2023-02-22T01:25:49;15.27;;;10.40;;
9240;SDS011;53485;49.326;9.738;2023-02-22T01:28:15;16.40;;;10.40;;
9240;SDS011;53485;49.326;9.738;2023-02-22T01:30:42;14.80;;;10.43;;
9240;SDS011;53485;49.326;9.738;2023-02-22T01:33:09;14.23;;;10.37;;
9240;SDS011;53485;49.326;9.738;2023-02-22T01:35:36;18.30;;;11.50;;
9240;SDS011;53485;49.326;9.738;2023-02-22T01:38:01;15.87;;;10.30;;
9240;SDS011;53485;49.326;9.738;2023-02-22T01:40:29;17.97;;;11.67;;
9240;SDS011;53485;49.326;9.738;2023-02-22T01:42:55;18.33;;;11.33;;
9240;SDS011;53485;49.326;9.738;2023-02-22T01:47:54;16.13;;;10.73;;
9240;SDS011;53485;49.326;9.738;2023-02-22T01:50:20;14.07;;;10.47;;
9240;SDS011;53485;49.326;9.738;2023-02-22T01:52:45;13.67;;;10.10;;
9240;SDS011;53485;49.326;9.738;2023-02-22T01:55:12;14.43;;;10.13;;
9240;SDS011;53485;49.326;9.738;2023-02-22T01:57:38;15.57;;;11.37;;
9240;SDS011;53485;49.326;9.738;2023-02-22T02:00:08;13.87;;;11.00;;
9240;SDS011;53485;49.326;9.738;2023-02-22T02:02:36;19.50;;;10.87;;
9240;SDS011;53485;49.326;9.738;2023-02-22T02:05:02;13.67;;;10.07;;
9240;SDS011;53485;49.326;9.738;2023-02-22T02:07:29;14.37;;;10.43;;
9240;SDS011;53485;49.326;9.738;2023-02-22T02:09:58;15.97;;;11.53;;
9240;SDS011;53485;49.326;9.738;2023-02-22T02:12:22;17.10;;;11.97;;
9240;SDS011;53485;49.326;9.738;2023-02-22T02:14:48;16.97;;;11.97;;
9240;SDS011;53485;49.326;9.738;2023-02-22T02:17:15;14.70;;;11.50;;
9240;SDS011;53485;49.326;9.738;2023-02-22T02:19:46;14.07;;;10.90;;
9240;SDS011;53485;49.326;9.738;2023-02-22T02:24:51;16.77;;;11.83;;
9240;SDS011;53485;49.326;9.738;2023-02-22T02:27:17;19.97;;;13.43;;
9240;SDS011;53485;49.326;9.738;2023-02-22T02:29:46;18.67;;;13.70;;
9240;SDS011;53485;49.326;9.738;2023-02-22T02:34:48;19.87;;;13.90;;
9240;SDS011;53485;49.326;9.738;2023-02-22T02:37:24;20.13;;;13.57;;
9240;SDS011;53485;49.326;9.738;2023-02-22T02:39:49;25.57;;;14.30;;
9240;SDS011;53485;49.326;9.738;2023-02-22T02:42:15;20.10;;;13.87;;
9240;SDS011;53485;49.326;9.738;2023-02-22T02:44:41;22.30;;;13.50;;
9240;SDS011;53485;49.326;9.738;2023-02-22T02:47:09;21.53;;;13.90;;
9240;SDS011;53485;49.326;9.738;2023-02-22T02:49:36;16.70;;;13.43;;
9240;SDS011;53485;49.326;9.738;2023-02-22T02:52:01;19.47;;;13.67;;
9240;SDS011;53485;49.326;9.738;2023-02-22T02:54:27;22.80;;;13.57;;
9240;SDS011;53485;49.326;9.738;2023-02-22T02:56:54;18.63;;;12.00;;
9240;SDS011;53485;49.326;9.738;2023-02-22T02:59:27;18.03;;;11.87;;
9240;SDS011;53485;49.326;9.738;2023-02-22T03:01:58;17.40;;;12.17;;
9240;SDS011;53485;49.326;9.738;2023-02-22T03:04:23;20.00;;;10.90;;
9240;SDS011;53485;49.326;9.738;2023-02-22T03:06:52;16.87;;;11.20;;
9240;SDS011;53485;49.326;9.738;2023-02-22T03:09:21;17.57;;;12.73;;
9240;SDS011;53485;49.326;9.738;2023-02-22T03:11:50;16.33;;;11.37;;
9240;SDS011;53485;49.326;9.738;2023-02-22T03:14:16;15.67;;;10.63;;
9240;SDS011;53485;49.326;9.738;2023-02-22T03:16:44;14.50;;;10.43;;
9240;SDS011;53485;49.326;9.738;2023-02-22T03:19:26;16.23;;;11.10;;
9240;SDS011;53485;49.326;9.738;2023-02-22T03:22:09;13.67;;;9.87;;
9240;SDS011;53485;49.326;9.738;2023-02-22T03:24:36;14.80;;;9.87;;
9240;SDS011;53485;49.326;9.738;2023-02-22T03:27:05;15.57;;;10.13;;
9240;SDS011;53485;49.326;9.738;2023-02-22T03:29:30;13.80;;;10.17;;
9240;SDS011;53485;49.326;9.738;2023-02-22T03:31:56;11.90;;;10.10;;
9240;SDS011;53485;49.326;9.738;2023-02-22T03:34:22;11.80;;;9.27;;
9240;SDS011;53485;49.326;9.738;2023-02-22T03:36:49;10.23;;;8.40;;
9240;SDS011;53485;49.326;9.738;2023-02-22T03:39:14;13.63;;;9.13;;
9240;SDS011;53485;49.326;9.738;2023-02-22T03:41:42;17.70;;;9.93;;
9240;SDS011;53485;49.326;9.738;2023-02-22T03:44:08;14.60;;;9.00;;
9240;SDS011;53485;49.326;9.738;2023-02-22T03:46:33;14.27;;;8.90;;
9240;SDS011;53485;49.326;9.738;2023-02-22T03:49:33;12.20;;;8.87;;
9240;SDS011;53485;49.326;9.738;2023-02-22T03:51:41;12.27;;;9.23;;
9240;SDS011;53485;49.326;9.738;2023-02-22T03:54:08;12.90;;;8.90;;
9240;SDS011;53485;49.326;9.738;2023-02-22T03:56:34;11.70;;;7.20;;
9240;SDS011;53485;49.326;9.738;2023-02-22T03:59:04;12.10;;;7.77;;
9240;SDS011;53485;49.326;9.738;2023-02-22T04:01:30;12.93;;;7.73;;
9240;SDS011;53485;49.326;9.738;2023-02-22T04:03:57;12.33;;;7.97;;
9240;SDS011;53485;49.326;9.738;2023-02-22T04:06:23;10.17;;;7.33;;
9240;SDS011;53485;49.326;9.738;2023-02-22T04:08:50;13.50;;;8.07;;
9240;SDS011;53485;49.326;9.738;2023-02-22T04:11:16;12.93;;;8.67;;
9240;SDS011;53485;49.326;9.738;2023-02-22T04:13:43;11.03;;;8.33;;
9240;SDS011;53485;49.326;9.738;2023-02-22T04:16:10;12.17;;;8.17;;
9240;SDS011;53485;49.326;9.738;2023-02-22T04:18:36;12.83;;;8.63;;
9240;SDS011;53485;49.326;9.738;2023-02-22T04:21:03;11.27;;;8.20;;
9240;SDS011;53485;49.326;9.738;2023-02-22T04:23:29;10.33;;;7.53;;
9240;SDS011;53485;49.326;9.738;2023-02-22T04:25:56;9.73;;;7.70;;
9240;SDS011;53485;49.326;9.738;2023-02-22T04:28:23;13.17;;;7.90;;
9240;SDS011;53485;49.326;9.738;2023-02-22T04:30:49;11.00;;;8.03;;
9240;SDS011;53485;49.326;9.738;2023-02-22T04:33:16;10.83;;;7.93;;
9240;SDS011;53485;49.326;9.738;2023-02-22T04:35:42;11.43;;;7.30;;
9240;SDS011;53485;49.326;9.738;2023-02-22T04:38:09;9.50;;;7.20;;
9240;SDS011;53485;49.326;9.738;2023-02-22T04:40:35;10.67;;;8.10;;
9240;SDS011;53485;49.326;9.738;2023-02-22T04:43:01;10.60;;;7.33;;
9240;SDS011;53485;49.326;9.738;2023-02-22T04:45:28;12.03;;;7.50;;
9240;SDS011;53485;49.326;9.738;2023-02-22T04:47:54;9.93;;;7.50;;
9240;SDS011;53485;49.326;9.738;2023-02-22T04:50:21;10.70;;;7.27;;
9240;SDS011;53485;49.326;9.738;2023-02-22T04:52:47;12.70;;;7.20;;
9240;SDS011;53485;49.326;9.738;2023-02-22T04:55:13;11.83;;;7.67;;
9240;SDS011;53485;49.326;9.738;2023-02-22T04:57:40;11.83;;;7.87;;
9240;SDS011;53485;49.326;9.738;2023-02-22T05:00:07;11.37;;;8.57;;
9240;SDS011;53485;49.326;9.738;2023-02-22T05:02:33;10.07;;;7.27;;
9240;SDS011;53485;49.326;9.738;2023-02-22T05:05:00;10.60;;;7.17;;
9240;SDS011;53485;49.326;9.738;2023-02-22T05:07:27;12.00;;;7.07;;
9240;SDS011;53485;49.326;9.738;2023-02-22T05:09:53;11.87;;;7.57;;
9240;SDS011;53485;49.326;9.738;2023-02-22T05:12:20;10.47;;;7.43;;
9240;SDS011;53485;49.326;9.738;2023-02-22T05:14:47;10.27;;;7.03;;
9240;SDS011;53485;49.326;9.738;2023-02-22T05:17:13;11.17;;;7.27;;
9240;SDS011;53485;49.326;9.738;2023-02-22T05:19:40;9.87;;;7.13;;
9240;SDS011;53485;49.326;9.738;2023-02-22T05:22:06;11.07;;;7.90;;
9240;SDS011;53485;49.326;9.738;2023-02-22T05:24:33;11.93;;;8.47;;
9240;SDS011;53485;49.326;9.738;2023-02-22T05:27:00;9.77;;;7.27;;
9240;SDS011;53485;49.326;9.738;2023-02-22T05:29:26;10.40;;;6.83;;
9240;SDS011;53485;49.326;9.738;2023-02-22T05:31:53;12.27;;;7.90;;
9240;SDS011;53485;49.326;9.738;2023-02-22T05:34:19;11.93;;;7.57;;
9240;SDS011;53485;49.326;9.738;2023-02-22T05:36:46;11.30;;;7.00;;
9240;SDS011;53485;49.326;9.738;2023-02-22T05:39:13;11.47;;;6.90;;
9240;SDS011;53485;49.326;9.738;2023-02-22T05:41:39;9.97;;;6.87;;
9240;SDS011;53485;49.326;9.738;2023-02-22T05:44:06;8.30;;;6.77;;
9240;SDS011;53485;49.326;9.738;2023-02-22T05:46:32;14.23;;;7.27;;
9240;SDS011;53485;49.326;9.738;2023-02-22T05:48:59;10.50;;;6.80;;
9240;SDS011;53485;49.326;9.738;2023-02-22T05:51:26;9.17;;;6.50;;
9240;SDS011;53485;49.326;9.738;2023-02-22T05:53:52;10.73;;;7.23;;
9240;SDS011;53485;49.326;9.738;2023-02-22T05:56:19;10.20;;;7.03;;
9240;SDS011;53485;49.326;9.738;2023-02-22T05:58:45;9.07;;;6.03;;
9240;SDS011;53485;49.326;9.738;2023-02-22T06:01:11;10.30;;;6.93;;
9240;SDS011;53485;49.326;9.738;2023-02-22T06:03:38;10.63;;;7.80;;
9240;SDS011;53485;49.326;9.738;2023-02-22T06:06:05;10.10;;;7.00;;
9240;SDS011;53485;49.326;9.738;2023-02-22T06:08:31;11.93;;;7.20;;
9240;SDS011;53485;49.326;9.738;2023-02-22T06:10:58;8.63;;;6.50;;
9240;SDS011;53485;49.326;9.738;2023-02-22T06:13:25;13.07;;;7.23;;
9240;SDS011;53485;49.326;9.738;2023-02-22T06:15:51;11.83;;;7.27;;
9240;SDS011;53485;49.326;9.738;2023-02-22T06:18:18;11.73;;;6.63;;
9240;SDS011;53485;49.326;9.738;2023-02-22T06:20:44;10.30;;;6.17;;
9240;SDS011;53485;49.326;9.738;2023-02-22T06:23:11;9.30;;;7.00;;
9240;SDS011;53485;49.326;9.738;2023-02-22T06:25:37;11.03;;;7.10;;
9240;SDS011;53485;49.326;9.738;2023-02-22T06:28:04;10.97;;;6.33;;
9240;SDS011;53485;49.326;9.738;2023-02-22T06:30:31;14.53;;;7.10;;
9240;SDS011;53485;49.326;9.738;2023-02-22T06:32:57;11.73;;;7.33;;
9240;SDS011;53485;49.326;9.738;2023-02-22T06:35:24;10.70;;;7.07;;
9240;SDS011;53485;49.326;9.738;2023-02-22T06:37:50;9.70;;;6.43;;
9240;SDS011;53485;49.326;9.738;2023-02-22T06:40:17;9.47;;;6.50;;
9240;SDS011;53485;49.326;9.738;2023-02-22T06:42:45;9.53;;;6.63;;
9240;SDS011;53485;49.326;9.738;2023-02-22T06:45:10;9.13;;;6.57;;
9240;SDS011;53485;49.326;9.738;2023-02-22T06:47:37;10.27;;;7.13;;
9240;SDS011;53485;49.326;9.738;2023-02-22T06:50:03;10.67;;;6.90;;
9240;SDS011;53485;49.326;9.738;2023-02-22T06:52:29;11.23;;;7.20;;
9240;SDS011;53485;49.326;9.738;2023-02-22T06:54:56;11.50;;;6.80;;
9240;SDS011;53485;49.326;9.738;2023-02-22T06:57:22;10.37;;;6.37;;
9240;SDS011;53485;49.326;9.738;2023-02-22T06:59:49;13.97;;;6.40;;
9240;SDS011;53485;49.326;9.738;2023-02-22T07:02:16;8.37;;;6.30;;
9240;SDS011;53485;49.326;9.738;2023-02-22T07:04:43;11.53;;;6.70;;
9240;SDS011;53485;49.326;9.738;2023-02-22T07:07:09;9.67;;;6.80;;
9240;SDS011;53485;49.326;9.738;2023-02-22T07:09:35;8.83;;;6.17;;
9240;SDS011;53485;49.326;9.738;2023-02-22T07:12:01;10.20;;;6.67;;
9240;SDS011;53485;49.326;9.738;2023-02-22T07:14:28;8.53;;;6.23;;
9240;SDS011;53485;49.326;9.738;2023-02-22T07:16:55;9.50;;;6.43;;
9240;SDS011;53485;49.326;9.738;2023-02-22T07:19:21;11.00;;;6.60;;
9240;SDS011;53485;49.326;9.738;2023-02-22T07:21:48;8.37;;;6.30;;
9240;SDS011;53485;49.326;9.738;2023-02-22T07:24:14;9.97;;;6.47;;
9240;SDS011;53485;49.326;9.738;2023-02-22T07:26:41;9.00;;;6.60;;
9240;SDS011;53485;49.326;9.738;2023-02-22T07:29:08;7.43;;;6.30;;
9240;SDS011;53485;49.326;9.738;2023-02-22T07:31:35;11.10;;;7.07;;
9240;SDS011;53485;49.326;9.738;2023-02-22T07:34:01;8.67;;;6.57;;
9240;SDS011;53485;49.326;9.738;2023-02-22T07:36:28;11.90;;;6.63;;
9240;SDS011;53485;49.326;9.738;2023-02-22T07:38:54;11.20;;;6.80;;
9240;SDS011;53485;49.326;9.738;2023-02-22T07:41:21;8.17;;;6.93;;
9240;SDS011;53485;49.326;9.738;2023-02-22T07:43:48;7.97;;;5.37;;
9240;SDS011;53485;49.326;9.738;2023-02-22T07:46:14;11.80;;;6.33;;
9240;SDS011;53485;49.326;9.738;2023-02-22T07:48:40;8.43;;;5.73;;
9240;SDS011;53485;49.326;9.738;2023-02-22T07:51:07;7.57;;;5.47;;
9240;SDS011;53485;49.326;9.738;2023-02-22T07:53:33;6.33;;;5.20;;
9240;SDS011;53485;49.326;9.738;2023-02-22T07:56:01;8.07;;;5.60;;
9240;SDS011;53485;49.326;9.738;2023-02-22T07:58:27;7.90;;;5.53;;
9240;SDS011;53485;49.326;9.738;2023-02-22T08:00:53;8.93;;;5.87;;
9240;SDS011;53485;49.326;9.738;2023-02-22T08:03:20;7.77;;;5.17;;
9240;SDS011;53485;49.326;9.738;2023-02-22T08:05:46;6.17;;;5.37;;
9240;SDS011;53485;49.326;9.738;2023-02-22T08:08:11;6.93;;;5.60;;
9240;SDS011;53485;49.326;9.738;2023-02-22T08:10:38;8.33;;;6.10;;
9240;SDS011;53485;49.326;9.738;2023-02-22T08:13:04;10.63;;;7.10;;
9240;SDS011;53485;49.326;9.738;2023-02-22T08:15:32;7.83;;;5.20;;
9240;SDS011;53485;49.326;9.738;2023-02-22T08:17:57;7.67;;;5.23;;
9240;SDS011;53485;49.326;9.738;2023-02-22T08:20:23;10.17;;;5.67;;
9240;SDS011;53485;49.326;9.738;2023-02-22T08:22:50;6.33;;;4.70;;
9240;SDS011;53485;49.326;9.738;2023-02-22T08:25:16;5.90;;;4.73;;
9240;SDS011;53485;49.326;9.738;2023-02-22T08:27:42;5.77;;;4.87;;
9240;SDS011;53485;49.326;9.738;2023-02-22T08:30:12;5.27;;;4.77;;
9240;SDS011;53485;49.326;9.738;2023-02-22T08:32:36;7.17;;;5.50;;
9240;SDS011;53485;49.326;9.738;2023-02-22T08:35:03;7.33;;;5.63;;
9240;SDS011;53485;49.326;9.738;2023-02-22T08:37:30;8.27;;;5.30;;
9240;SDS011;53485;49.326;9.738;2023-02-22T08:39:57;6.43;;;5.00;;
9240;SDS011;53485;49.326;9.738;2023-02-22T08:42:23;7.10;;;5.60;;
9240;SDS011;53485;49.326;9.738;2023-02-22T08:44:50;6.90;;;5.20;;
9240;SDS011;53485;49.326;9.738;2023-02-22T08:47:17;5.77;;;4.60;;
9240;SDS011;53485;49.326;9.738;2023-02-22T08:49:43;6.20;;;5.23;;
9240;SDS011;53485;49.326;9.738;2023-02-22T08:52:10;7.17;;;5.40;;
9240;SDS011;53485;49.326;9.738;2023-02-22T08:54:37;5.63;;;5.03;;
9240;SDS011;53485;49.326;9.738;2023-02-22T08:57:03;4.90;;;4.40;;
9240;SDS011;53485;49.326;9.738;2023-02-22T08:59:29;6.40;;;5.00;;
9240;SDS011;53485;49.326;9.738;2023-02-22T09:01:56;5.17;;;4.77;;
9240;SDS011;53485;49.326;9.738;2023-02-22T09:04:23;5.57;;;4.60;;
9240;SDS011;53485;49.326;9.738;2023-02-22T09:06:49;4.93;;;4.43;;
9240;SDS011;53485;49.326;9.738;2023-02-22T09:09:17;5.23;;;4.40;;
9240;SDS011;53485;49.326;9.738;2023-02-22T09:11:42;4.60;;;4.20;;
9240;SDS011;53485;49.326;9.738;2023-02-22T09:14:09;5.23;;;4.53;;
9240;SDS011;53485;49.326;9.738;2023-02-22T09:16:36;6.20;;;4.27;;
9240;SDS011;53485;49.326;9.738;2023-02-22T09:19:02;3.40;;;3.17;;
9240;SDS011;53485;49.326;9.738;2023-02-22T09:21:28;4.80;;;3.50;;
9240;SDS011;53485;49.326;9.738;2023-02-22T09:23:55;3.93;;;3.63;;
9240;SDS011;53485;49.326;9.738;2023-02-22T09:26:22;5.17;;;4.40;;
9240;SDS011;53485;49.326;9.738;2023-02-22T09:28:49;5.00;;;4.03;;
9240;SDS011;53485;49.326;9.738;2023-02-22T09:31:14;6.00;;;4.10;;
9240;SDS011;53485;49.326;9.738;2023-02-22T09:33:41;6.60;;;4.73;;
9240;SDS011;53485;49.326;9.738;2023-02-22T09:36:08;4.20;;;3.70;;
9240;SDS011;53485;49.326;9.738;2023-02-22T09:38:34;5.73;;;4.50;;
9240;SDS011;53485;49.326;9.738;2023-02-22T09:41:21;4.83;;;4.07;;
9240;SDS011;53485;49.326;9.738;2023-02-22T09:43:51;5.83;;;4.07;;
9240;SDS011;53485;49.326;9.738;2023-02-22T09:48:52;4.33;;;3.53;;
9240;SDS011;53485;49.326;9.738;2023-02-22T09:51:16;4.50;;;4.10;;
9240;SDS011;53485;49.326;9.738;2023-02-22T09:53:43;4.50;;;4.07;;
9240;SDS011;53485;49.326;9.738;2023-02-22T09:56:10;4.70;;;3.30;;
9240;SDS011;53485;49.326;9.738;2023-02-22T09:58:38;3.83;;;3.47;;
9240;SDS011;53485;49.326;9.738;2023-02-22T10:01:09;4.10;;;3.47;;
9240;SDS011;53485;49.326;9.738;2023-02-22T10:03:33;4.47;;;4.07;;
9240;SDS011;53485;49.326;9.738;2023-02-22T10:06:02;4.10;;;3.80;;
9240;SDS011;53485;49.326;9.738;2023-02-22T10:08:27;4.80;;;4.40;;
9240;SDS011;53485;49.326;9.738;2023-02-22T10:10:55;4.50;;;4.13;;
9240;SDS011;53485;49.326;9.738;2023-02-22T10:13:24;4.90;;;4.40;;
9240;SDS011;53485;49.326;9.738;2023-02-22T10:15:58;4.23;;;3.87;;
9240;SDS011;53485;49.326;9.738;2023-02-22T10:20:56;4.63;;;3.83;;
9240;SDS011;53485;49.326;9.738;2023-02-22T10:23:35;4.57;;;4.10;;
9240;SDS011;53485;49.326;9.738;2023-02-22T10:26:07;4.20;;;3.80;;
9240;SDS011;53485;49.326;9.738;2023-02-22T10:28:33;4.33;;;3.90;;
9240;SDS011;53485;49.326;9.738;2023-02-22T10:30:57;4.20;;;3.80;;
9240;SDS011;53485;49.326;9.738;2023-02-22T10:33:23;3.27;;;3.03;;
9240;SDS011;53485;49.326;9.738;2023-02-22T10:35:48;3.43;;;3.23;;
9240;SDS011;53485;49.326;9.738;2023-02-22T10:38:18;5.77;;;4.70;;
9240;SDS011;53485;49.326;9.738;2023-02-22T10:40:45;6.30;;;4.40;;
9240;SDS011;53485;49.326;9.738;2023-02-22T10:43:09;6.17;;;4.70;;
9240;SDS011;53485;49.326;9.738;2023-02-22T10:45:36;5.13;;;4.50;;
9240;SDS011;53485;49.326;9.738;2023-02-22T10:48:04;4.83;;;4.07;;
9240;SDS011;53485;49.326;9.738;2023-02-22T10:50:29;5.00;;;4.57;;
9240;SDS011;53485;49.326;9.738;2023-02-22T10:52:55;4.80;;;4.40;;
9240;SDS011;53485;49.326;9.738;2023-02-22T10:55:21;5.30;;;4.47;;
9240;SDS011;53485;49.326;9.738;2023-02-22T10:57:49;4.80;;;3.90;;
9240;SDS011;53485;49.326;9.738;2023-02-22T11:00:18;4.73;;;4.20;;
9240;SDS011;53485;49.326;9.738;2023-02-22T11:02:48;4.80;;;4.30;;
9240;SDS011;53485;49.326;9.738;2023-02-22T11:05:24;5.60;;;4.83;;
9240;SDS011;53485;49.326;9.738;2023-02-22T11:07:39;4.33;;;3.63;;
9240;SDS011;53485;49.326;9.738;2023-02-22T11:10:06;4.00;;;3.63;;
9240;SDS011;53485;49.326;9.738;2023-02-22T11:12:33;6.13;;;4.17;;
9240;SDS011;53485;49.326;9.738;2023-02-22T11:15:31;3.90;;;3.40;;
9240;SDS011;53485;49.326;9.738;2023-02-22T11:17:41;4.57;;;4.17;;
9240;SDS011;53485;49.326;9.738;2023-02-22T11:20:16;4.93;;;4.10;;
9240;SDS011;53485;49.326;9.738;2023-02-22T11:22:37;3.60;;;3.30;;
9240;SDS011;53485;49.326;9.738;2023-02-22T11:25:02;4.27;;;3.87;;
9240;SDS011;53485;49.326;9.738;2023-02-22T11:27:32;3.23;;;2.90;;
9240;SDS011;53485;49.326;9.738;2023-02-22T11:30:07;4.40;;;4.00;;
9240;SDS011;53485;49.326;9.738;2023-02-22T11:32:25;5.87;;;4.07;;
9240;SDS011;53485;49.326;9.738;2023-02-22T11:34:51;5.63;;;4.63;;
9240;SDS011;53485;49.326;9.738;2023-02-22T11:37:26;4.97;;;4.10;;
9240;SDS011;53485;49.326;9.738;2023-02-22T11:39:48;4.87;;;4.47;;
9240;SDS011;53485;49.326;9.738;2023-02-22T11:42:20;4.93;;;3.63;;
9240;SDS011;53485;49.326;9.738;2023-02-22T11:44:45;5.33;;;4.50;;
9240;SDS011;53485;49.326;9.738;2023-02-22T11:47:12;5.57;;;4.60;;
9240;SDS011;53485;49.326;9.738;2023-02-22T11:49:40;5.20;;;4.30;;
9240;SDS011;53485;49.326;9.738;2023-02-22T11:52:16;6.33;;;3.70;;
9240;SDS011;53485;49.326;9.738;2023-02-22T11:55:50;4.07;;;3.20;;
9240;SDS011;53485;49.326;9.738;2023-02-22T12:00:02;4.67;;;3.53;;
9240;SDS011;53485;49.326;9.738;2023-02-22T12:05:17;4.53;;;3.67;;
9240;SDS011;53485;49.326;9.738;2023-02-22T12:07:47;4.43;;;3.33;;
9240;SDS011;53485;49.326;9.738;2023-02-22T12:10:36;5.37;;;4.00;;
9240;SDS011;53485;49.326;9.738;2023-02-22T12:13:04;3.63;;;3.33;;
9240;SDS011;53485;49.326;9.738;2023-02-22T12:15:33;4.33;;;3.90;;
9240;SDS011;53485;49.326;9.738;2023-02-22T12:18:00;5.73;;;4.10;;
9240;SDS011;53485;49.326;9.738;2023-02-22T12:20:25;5.00;;;4.10;;
9240;SDS011;53485;49.326;9.738;2023-02-22T12:23:01;5.20;;;4.70;;
9240;SDS011;53485;49.326;9.738;2023-02-22T12:25:30;5.30;;;3.90;;
9240;SDS011;53485;49.326;9.738;2023-02-22T12:27:56;4.80;;;4.27;;
9240;SDS011;53485;49.326;9.738;2023-02-22T12:30:23;5.57;;;3.97;;
9240;SDS011;53485;49.326;9.738;2023-02-22T12:32:50;5.37;;;4.73;;
9240;SDS011;53485;49.326;9.738;2023-02-22T12:35:19;7.47;;;5.00;;
9240;SDS011;53485;49.326;9.738;2023-02-22T12:37:52;4.93;;;4.33;;
9240;SDS011;53485;49.326;9.738;2023-02-22T12:40:26;11.53;;;4.87;;
9240;SDS011;53485;49.326;9.738;2023-02-22T12:42:52;4.80;;;4.40;;
9240;SDS011;53485;49.326;9.738;2023-02-22T12:45:24;5.07;;;4.43;;
9240;SDS011;53485;49.326;9.738;2023-02-22T12:47:50;4.67;;;4.10;;
9240;SDS011;53485;49.326;9.738;2023-02-22T12:50:17;5.40;;;4.13;;
9240;SDS011;53485;49.326;9.738;2023-02-22T12:52:43;9.20;;;5.00;;
9240;SDS011;53485;49.326;9.738;2023-02-22T12:55:23;7.27;;;4.07;;
9240;SDS011;53485;49.326;9.738;2023-02-22T12:57:52;5.73;;;4.20;;
9240;SDS011;53485;49.326;9.738;2023-02-22T13:00:19;5.87;;;4.13;;
9240;SDS011;53485;49.326;9.738;2023-02-22T13:02:50;6.70;;;4.17;;
9240;SDS011;53485;49.326;9.738;2023-02-22T13:05:14;5.00;;;3.53;;
9240;SDS011;53485;49.326;9.738;2023-02-22T13:07:44;7.50;;;5.93;;
9240;SDS011;53485;49.326;9.738;2023-02-22T13:10:12;8.83;;;5.80;;
9240;SDS011;53485;49.326;9.738;2023-02-22T13:12:39;6.00;;;4.20;;
9240;SDS011;53485;49.326;9.738;2023-02-22T13:15:07;4.80;;;4.30;;
9240;SDS011;53485;49.326;9.738;2023-02-22T13:17:38;6.53;;;4.47;;
9240;SDS011;53485;49.326;9.738;2023-02-22T13:20:06;6.77;;;4.47;;
9240;SDS011;53485;49.326;9.738;2023-02-22T13:22:31;4.57;;;3.87;;
9240;SDS011;53485;49.326;9.738;2023-02-22T13:24:58;5.10;;;4.50;;
9240;SDS011;53485;49.326;9.738;2023-02-22T13:27:23;5.07;;;4.33;;
9240;SDS011;53485;49.326;9.738;2023-02-22T13:29:48;5.43;;;4.17;;
9240;SDS011;53485;49.326;9.738;2023-02-22T13:35:02;5.73;;;4.17;;
9240;SDS011;53485;49.326;9.738;2023-02-22T13:37:34;6.17;;;4.10;;
9240;SDS011;53485;49.326;9.738;2023-02-22T13:42:33;5.27;;;4.03;;
9240;SDS011;53485;49.326;9.738;2023-02-22T13:47:52;8.50;;;4.60;;
9240;SDS011;53485;49.326;9.738;2023-02-22T13:50:23;4.10;;;3.53;;
9240;SDS011;53485;49.326;9.738;2023-02-22T13:52:45;6.27;;;3.90;;
9240;SDS011;53485;49.326;9.738;2023-02-22T13:55:15;4.67;;;3.87;;
9240;SDS011;53485;49.326;9.738;2023-02-22T13:57:41;4.23;;;3.77;;
9240;SDS011;53485;49.326;9.738;2023-02-22T14:00:20;8.37;;;5.43;;
9240;SDS011;53485;49.326;9.738;2023-02-22T14:07:51;3.73;;;2.80;;
9240;SDS011;53485;49.326;9.738;2023-02-22T14:12:49;6.33;;;4.00;;
9240;SDS011;53485;49.326;9.738;2023-02-22T14:15:17;6.10;;;4.20;;
9240;SDS011;53485;49.326;9.738;2023-02-22T14:17:43;6.40;;;4.30;;
9240;SDS011;53485;49.326;9.738;2023-02-22T14:20:20;7.27;;;5.10;;
9240;SDS011;53485;49.326;9.738;2023-02-22T14:22:48;5.53;;;4.87;;
9240;SDS011;53485;49.326;9.738;2023-02-22T14:27:45;4.90;;;4.40;;
9240;SDS011;53485;49.326;9.738;2023-02-22T14:30:28;5.40;;;4.70;;
9240;SDS011;53485;49.326;9.738;2023-02-22T14:32:53;5.87;;;4.20;;
9240;SDS011;53485;49.326;9.738;2023-02-22T14:35:20;5.90;;;4.90;;
9240;SDS011;53485;49.326;9.738;2023-02-22T14:37:48;8.47;;;4.90;;
9240;SDS011;53485;49.326;9.738;2023-02-22T14:42:48;8.03;;;4.70;;
9240;SDS011;53485;49.326;9.738;2023-02-22T14:45:19;7.00;;;4.93;;
9240;SDS011;53485;49.326;9.738;2023-02-22T14:47:44;6.93;;;4.73;;
9240;SDS011;53485;49.326;9.738;2023-02-22T14:50:13;7.13;;;5.53;;
9240;SDS011;53485;49.326;9.738;2023-02-22T14:52:39;5.90;;;4.93;;
9240;SDS011;53485;49.326;9.738;2023-02-22T14:55:40;9.57;;;5.77;;
9240;SDS011;53485;49.326;9.738;2023-02-22T14:57:53;10.80;;;9.70;;
9240;SDS011;53485;49.326;9.738;2023-02-22T15:00:20;66.83;;;49.77;;
9240;SDS011;53485;49.326;9.738;2023-02-22T15:02:46;22.17;;;16.60;;
9240;SDS011;53485;49.326;9.738;2023-02-22T15:05:12;11.73;;;5.87;;
9240;SDS011;53485;49.326;9.738;2023-02-22T15:07:37;9.20;;;6.20;;
9240;SDS011;53485;49.326;9.738;2023-02-22T15:10:14;9.00;;;5.53;;
9240;SDS011;53485;49.326;9.738;2023-02-22T15:12:40;6.60;;;4.83;;
9240;SDS011;53485;49.326;9.738;2023-02-22T15:15:09;9.73;;;5.60;;
9240;SDS011;53485;49.326;9.738;2023-02-22T15:17:34;8.60;;;5.63;;
9240;SDS011;53485;49.326;9.738;2023-02-22T15:20:04;7.67;;;6.20;;
9240;SDS011;53485;49.326;9.738;2023-02-22T15:22:28;10.40;;;8.27;;
9240;SDS011;53485;49.326;9.738;2023-02-22T15:25:01;7.03;;;5.97;;
9240;SDS011;53485;49.326;9.738;2023-02-22T15:27:29;9.43;;;5.83;;
9240;SDS011;53485;49.326;9.738;2023-02-22T15:29:58;8.90;;;6.03;;
9240;SDS011;53485;49.326;9.738;2023-02-22T15:32:30;7.03;;;5.73;;